PWSweather.com
Personal Weather Stations
Station Observations
IHTIMAN1
Neighbourhood 1, IhtimanBG 2050

Neighbourhood 1IhtimanBG 2050

Lat: 42.436852, Lon: 23.817921

Elevation: 2066

Station Type: Oregon Scientific WMR968

http://ihtiman-meteo.com

Latest ConditionsUpdated 9:10:01 AM GMT+02:02 Saturday, Jan 18, 2020
Currently Today's Max Today's Min Today's Average
Temperature 31.3°F-0.4°C 32.4°F0.2°C 30.9°F-0.6°C 31.8°F-0.1°C
Dew Point 25.5°F-3.6°C 28.2°F-2.1°C 25.2°F-3.8°C 26.6°F-3.0°C
Winds 3.5 mph SE5.6 kmh SE 5.8 mph -9.3 kmh - - 2.5 mph 4.0 kmh
Wind Gusts 5.8 mph9.3 kmh 8.1 mph13.0 kmh - -
Humidity 79% 85% 79% 81%
Pressure 30.30 in1026.1 mb 30.33 in1027.1 mb 30.27 in1025.1 mb -
Hour Temp Dew Point Humidity Winds Wind Gusts Pressure Precip Precip Rate Daily Precip Total
09:10 AM 31.3°F-0.4°C 25.5°F-3.6°C 79% 3.5 mph SE5.6 kmh SE 5.8 mph9.3 kmh 30.30 in1026.1 mb - 0.00 in0.0 mm 0.00 in0.0 mm
09:00 AM 31.5°F-0.3°C 25.7°F-3.5°C 79% 3.5 mph S5.6 kmh S 5.8 mph9.3 kmh 30.30 in1026.1 mb - 0.00 in0.0 mm 0.00 in0.0 mm
08:50 AM 31.2°F-0.4°C 25.4°F-3.7°C 79% 3.5 mph SE5.6 kmh SE 3.5 mph5.6 kmh 30.30 in1026.1 mb - 0.00 in0.0 mm 0.00 in0.0 mm
08:40 AM 31.1°F-0.5°C 25.7°F-3.5°C 80% 3.5 mph SE5.6 kmh SE 5.8 mph9.3 kmh 30.30 in1026.1 mb - 0.00 in0.0 mm 0.00 in0.0 mm
08:30 AM 31.1°F-0.5°C 25.3°F-3.7°C 79% 1.2 mph SSE1.9 kmh SSE 3.5 mph5.6 kmh 30.30 in1026.1 mb - 0.00 in0.0 mm 0.00 in0.0 mm
08:20 AM 30.9°F-0.6°C 25.2°F-3.8°C 79% 5.8 mph SE9.3 kmh SE 6.9 mph11.1 kmh 30.30 in1026.1 mb - 0.00 in0.0 mm 0.00 in0.0 mm
08:10 AM 31.1°F-0.5°C 25.7°F-3.5°C 80% 3.5 mph SE5.6 kmh SE 4.6 mph7.4 kmh 30.30 in1026.1 mb - 0.00 in0.0 mm 0.00 in0.0 mm
08:00 AM 31.1°F-0.5°C 25.7°F-3.5°C 80% 3.5 mph SSE5.6 kmh SSE 5.8 mph9.3 kmh 30.30 in1026.1 mb - 0.00 in0.0 mm 0.00 in0.0 mm
07:50 AM 31.1°F-0.5°C 25.7°F-3.5°C 80% 2.3 mph SSE3.7 kmh SSE 5.8 mph9.3 kmh 30.30 in1026.1 mb - 0.00 in0.0 mm 0.00 in0.0 mm
07:40 AM 31.1°F-0.5°C 25.7°F-3.5°C 80% 1.2 mph SSE1.9 kmh SSE 3.5 mph5.6 kmh 30.30 in1026.1 mb - 0.00 in0.0 mm 0.00 in0.0 mm
07:30 AM 31.1°F-0.5°C 25.3°F-3.7°C 79% 3.5 mph SE5.6 kmh SE 5.8 mph9.3 kmh 30.30 in1026.1 mb - 0.00 in0.0 mm 0.00 in0.0 mm
07:20 AM 31.1°F-0.5°C 25.7°F-3.5°C 80% 4.6 mph SE7.4 kmh SE 8.1 mph13.0 kmh 30.27 in1025.1 mb - 0.00 in0.0 mm 0.00 in0.0 mm
07:10 AM 31.3°F-0.4°C 25.8°F-3.4°C 80% 4.6 mph SE7.4 kmh SE 5.8 mph9.3 kmh 30.27 in1025.1 mb - 0.00 in0.0 mm 0.00 in0.0 mm
07:00 AM 31.3°F-0.4°C 25.8°F-3.4°C 80% 3.5 mph SE5.6 kmh SE 5.8 mph9.3 kmh 30.27 in1025.1 mb - 0.00 in0.0 mm 0.00 in0.0 mm
06:50 AM 31.5°F-0.3°C 26.0°F-3.3°C 80% 1.2 mph SE1.9 kmh SE 4.6 mph7.4 kmh 30.27 in1025.1 mb - 0.00 in0.0 mm 0.00 in0.0 mm
06:40 AM 31.5°F-0.3°C 26.0°F-3.3°C 80% Calm Calm 3.5 mph5.6 kmh 30.27 in1025.1 mb - 0.00 in0.0 mm 0.00 in0.0 mm
06:30 AM 31.5°F-0.3°C 26.0°F-3.3°C 80% 4.6 mph SSE7.4 kmh SSE 3.5 mph5.6 kmh 30.27 in1025.1 mb - 0.00 in0.0 mm 0.00 in0.0 mm
06:20 AM 31.5°F-0.3°C 25.7°F-3.5°C 79% 3.5 mph SSE5.6 kmh SSE 3.5 mph5.6 kmh 30.27 in1025.1 mb - 0.00 in0.0 mm 0.00 in0.0 mm
06:10 AM 31.6°F-0.2°C 25.9°F-3.4°C 79% 3.5 mph SSE5.6 kmh SSE 3.5 mph5.6 kmh 30.27 in1025.1 mb - 0.00 in0.0 mm 0.00 in0.0 mm
06:00 AM 31.6°F-0.2°C 25.9°F-3.4°C 79% 3.5 mph E5.6 kmh E 3.5 mph5.6 kmh 30.27 in1025.1 mb - 0.00 in0.0 mm 0.00 in0.0 mm
05:50 AM 31.6°F-0.2°C 25.9°F-3.4°C 79% 3.5 mph SE5.6 kmh SE 5.8 mph9.3 kmh 30.27 in1025.1 mb - 0.00 in0.0 mm 0.00 in0.0 mm
05:40 AM 31.6°F-0.2°C 25.9°F-3.4°C 79% 2.3 mph SE3.7 kmh SE 4.6 mph7.4 kmh 30.27 in1025.1 mb - 0.00 in0.0 mm 0.00 in0.0 mm
05:30 AM 31.8°F-0.1°C 26.0°F-3.3°C 79% Calm Calm -- 30.27 in1025.1 mb - 0.00 in0.0 mm 0.00 in0.0 mm
05:20 AM 31.8°F-0.1°C 26.0°F-3.3°C 79% Calm Calm 3.5 mph5.6 kmh 30.27 in1025.1 mb - 0.00 in0.0 mm 0.00 in0.0 mm
05:10 AM 32.0°F0.0°C 26.5°F-3.1°C 80% 2.3 mph S3.7 kmh S 3.5 mph5.6 kmh 30.27 in1025.1 mb - 0.00 in0.0 mm 0.00 in0.0 mm
05:00 AM 31.8°F-0.1°C 26.0°F-3.3°C 79% Calm Calm -- 30.27 in1025.1 mb - 0.00 in0.0 mm 0.00 in0.0 mm
04:50 AM 31.8°F-0.1°C 26.0°F-3.3°C 79% Calm Calm 3.5 mph5.6 kmh 30.27 in1025.1 mb - 0.00 in0.0 mm 0.00 in0.0 mm
04:40 AM 32.0°F0.0°C 26.5°F-3.1°C 80% 4.6 mph ENE7.4 kmh ENE 5.8 mph9.3 kmh 30.27 in1025.1 mb - 0.00 in0.0 mm 0.00 in0.0 mm
04:30 AM 32.0°F0.0°C 26.5°F-3.1°C 80% Calm Calm 3.5 mph5.6 kmh 30.27 in1025.1 mb - 0.00 in0.0 mm 0.00 in0.0 mm
04:20 AM 32.2°F0.1°C 26.7°F-2.9°C 80% 4.6 mph SE7.4 kmh SE 3.5 mph5.6 kmh 30.27 in1025.1 mb - 0.00 in0.0 mm 0.00 in0.0 mm
04:10 AM 32.2°F0.1°C 26.7°F-2.9°C 80% 1.2 mph SE1.9 kmh SE 3.5 mph5.6 kmh 30.30 in1026.1 mb - 0.00 in0.0 mm 0.00 in0.0 mm
04:00 AM 32.2°F0.1°C 26.7°F-2.9°C 80% Calm Calm 3.5 mph5.6 kmh 30.30 in1026.1 mb - 0.00 in0.0 mm 0.00 in0.0 mm
03:50 AM 32.2°F0.1°C 26.7°F-2.9°C 80% 3.5 mph S5.6 kmh S 3.5 mph5.6 kmh 30.30 in1026.1 mb - 0.00 in0.0 mm 0.00 in0.0 mm
03:40 AM 32.4°F0.2°C 26.9°F-2.8°C 80% 2.3 mph SE3.7 kmh SE 3.5 mph5.6 kmh 30.30 in1026.1 mb - 0.00 in0.0 mm 0.00 in0.0 mm
03:30 AM 32.4°F0.2°C 26.9°F-2.8°C 80% 3.5 mph SE5.6 kmh SE 3.5 mph5.6 kmh 30.30 in1026.1 mb - 0.00 in0.0 mm 0.00 in0.0 mm
03:20 AM 32.2°F0.1°C 26.7°F-2.9°C 80% Calm Calm -- 30.30 in1026.1 mb - 0.00 in0.0 mm 0.00 in0.0 mm
03:10 AM 32.4°F0.2°C 26.9°F-2.8°C 80% 1.2 mph SE1.9 kmh SE 3.5 mph5.6 kmh 30.30 in1026.1 mb - 0.00 in0.0 mm 0.00 in0.0 mm
03:00 AM 32.4°F0.2°C 26.9°F-2.8°C 80% 2.3 mph SE3.7 kmh SE 3.5 mph5.6 kmh 30.30 in1026.1 mb - 0.00 in0.0 mm 0.00 in0.0 mm
02:50 AM 32.4°F0.2°C 27.2°F-2.7°C 81% 3.5 mph ESE5.6 kmh ESE 3.5 mph5.6 kmh 30.30 in1026.1 mb - 0.00 in0.0 mm 0.00 in0.0 mm
02:40 AM 32.4°F0.2°C 27.2°F-2.7°C 81% 4.6 mph SE7.4 kmh SE 5.8 mph9.3 kmh 30.30 in1026.1 mb - 0.00 in0.0 mm 0.00 in0.0 mm
02:30 AM 32.4°F0.2°C 27.5°F-2.5°C 82% 3.5 mph SE5.6 kmh SE 3.5 mph5.6 kmh 30.30 in1026.1 mb - 0.00 in0.0 mm 0.00 in0.0 mm
02:20 AM 32.4°F0.2°C 27.8°F-2.3°C 83% 2.3 mph SE3.7 kmh SE 3.5 mph5.6 kmh 30.30 in1026.1 mb - 0.00 in0.0 mm 0.00 in0.0 mm
02:10 AM 32.2°F0.1°C 27.6°F-2.4°C 83% Calm Calm -- 30.30 in1026.1 mb - 0.00 in0.0 mm 0.00 in0.0 mm
02:00 AM 32.2°F0.1°C 27.6°F-2.4°C 83% 3.5 mph SSE5.6 kmh SSE 4.6 mph7.4 kmh 30.30 in1026.1 mb - 0.00 in0.0 mm 0.00 in0.0 mm
01:50 AM 32.2°F0.1°C 27.9°F-2.3°C 84% Calm Calm -- 30.30 in1026.1 mb - 0.00 in0.0 mm 0.00 in0.0 mm
01:40 AM 32.2°F0.1°C 27.9°F-2.3°C 84% 2.3 mph SSE3.7 kmh SSE 3.5 mph5.6 kmh 30.30 in1026.1 mb - 0.00 in0.0 mm 0.00 in0.0 mm
01:30 AM 32.2°F0.1°C 27.9°F-2.3°C 84% 1.2 mph SSE1.9 kmh SSE -- 30.30 in1026.1 mb - 0.00 in0.0 mm 0.00 in0.0 mm
01:20 AM 32.2°F0.1°C 27.9°F-2.3°C 84% Calm Calm 4.6 mph7.4 kmh 30.30 in1026.1 mb - 0.00 in0.0 mm 0.00 in0.0 mm
01:10 AM 32.2°F0.1°C 27.9°F-2.3°C 84% 3.5 mph S5.6 kmh S 3.5 mph5.6 kmh 30.30 in1026.1 mb - 0.00 in0.0 mm 0.00 in0.0 mm
01:00 AM 32.2°F0.1°C 27.9°F-2.3°C 84% 2.3 mph ESE3.7 kmh ESE 2.3 mph3.7 kmh 30.30 in1026.1 mb - 0.00 in0.0 mm 0.00 in0.0 mm
12:50 AM 32.0°F0.0°C 27.7°F-2.4°C 84% 2.3 mph SE3.7 kmh SE 2.3 mph3.7 kmh 30.30 in1026.1 mb - 0.00 in0.0 mm 0.00 in0.0 mm
12:40 AM 32.2°F0.1°C 27.9°F-2.3°C 84% 3.5 mph SE5.6 kmh SE 3.5 mph5.6 kmh 30.30 in1026.1 mb - 0.00 in0.0 mm 0.00 in0.0 mm
12:30 AM 32.2°F0.1°C 28.2°F-2.1°C 85% 2.3 mph SE3.7 kmh SE 3.5 mph5.6 kmh 30.30 in1026.1 mb - 0.00 in0.0 mm 0.00 in0.0 mm
12:20 AM 32.2°F0.1°C 27.9°F-2.3°C 84% 3.5 mph E5.6 kmh E 3.5 mph5.6 kmh 30.33 in1027.1 mb - 0.00 in0.0 mm 0.00 in0.0 mm
12:10 AM 32.2°F0.1°C 27.9°F-2.3°C 84% 3.5 mph E5.6 kmh E 5.8 mph9.3 kmh 30.33 in1027.1 mb - 0.00 in0.0 mm 0.00 in0.0 mm
12:00 AM 32.2°F0.1°C 27.9°F-2.3°C 84% 2.3 mph E3.7 kmh E 5.8 mph9.3 kmh 30.33 in1027.1 mb - 0.00 in0.0 mm 0.00 in0.0 mm